Time;durP1;ratioP1;P1;durP2;ratioP2;P2;SDS_P1;SDS_P2;PMS_P1;PMS_P2;Temp;Humidity;BMP_temperature;BMP_pressure;BME280_temperature;BME280_humidity;BME280_pressure;Samples;Min_cycle;Max_cycle;Signal;HPM_P1;HPM_P2
2024/01/05 00:01:42;;;;;;;49.72;23.65;;;;;;;-146.58;100.00;69501.63;5029601;28;20022;-62
2024/01/05 00:04:07;;;;;;;46.00;23.98;;;;;;;-146.58;100.00;69501.63;5029617;28;20125;-62
2024/01/05 00:06:36;;;;;;;51.22;24.80;;;;;;;-146.58;100.00;69501.63;5030502;28;20034;-62
2024/01/05 00:09:02;;;;;;;53.65;25.77;;;;;;;-146.58;100.00;69501.63;5029427;28;20419;-62
2024/01/05 00:11:27;;;;;;;67.65;29.05;;;;;;;-146.58;100.00;69501.63;5030842;28;20029;-62
2024/01/05 00:13:52;;;;;;;54.35;25.40;;;;;;;-146.58;100.00;69501.63;5029737;28;20115;-62
2024/01/05 00:16:19;;;;;;;47.30;22.13;;;;;;;-146.58;100.00;69501.63;5030789;28;20362;-62
2024/01/05 00:18:45;;;;;;;59.58;27.23;;;;;;;-146.58;100.00;69501.63;5029016;28;20393;-62
2024/01/05 00:21:19;;;;;;;50.08;25.80;;;;;;;-146.58;100.00;69501.63;5030700;28;20041;-62
2024/01/05 00:23:44;;;;;;;49.53;26.13;;;;;;;-146.58;100.00;69501.63;5028947;28;20686;-62
2024/01/05 00:26:10;;;;;;;49.70;28.17;;;;;;;-146.58;100.00;69501.63;5030668;28;20029;-62
2024/01/05 00:28:35;;;;;;;61.15;24.98;;;;;;;-146.58;100.00;69501.63;5029183;28;20021;-60
2024/01/05 00:31:00;;;;;;;45.72;23.95;;;;;;;-146.58;100.00;69501.63;5030787;28;20037;-62
2024/01/05 00:33:26;;;;;;;53.88;26.35;;;;;;;-146.58;100.00;69501.63;5030056;28;20089;-62
2024/01/05 00:35:51;;;;;;;53.33;26.20;;;;;;;-146.58;100.00;69501.63;5029219;28;20045;-62
2024/01/05 00:38:17;;;;;;;43.50;22.75;;;;;;;-146.58;100.00;69501.63;5030694;28;20025;-62
2024/01/05 00:40:42;;;;;;;48.75;23.58;;;;;;;-146.58;100.00;69501.63;5028560;28;20044;-63
2024/01/05 00:43:07;;;;;;;47.42;24.63;;;;;;;-146.58;100.00;69501.63;5030533;28;20014;-63
2024/01/05 00:45:33;;;;;;;49.78;23.38;;;;;;;-146.58;100.00;69501.63;5028727;28;20463;-63
2024/01/05 00:47:58;;;;;;;38.30;22.40;;;;;;;-146.58;100.00;69501.63;5030325;28;20028;-63
2024/01/05 00:50:23;;;;;;;41.83;22.52;;;;;;;-146.58;100.00;69501.63;5029097;28;20038;-63
2024/01/05 00:52:49;;;;;;;67.00;28.15;;;;;;;-146.58;100.00;69501.63;5030197;28;20022;-63
2024/01/05 00:55:14;;;;;;;54.53;25.60;;;;;;;-146.58;100.00;69501.63;5028789;28;20497;-62
2024/01/05 00:57:39;;;;;;;42.17;23.38;;;;;;;-146.58;100.00;69501.63;5030352;28;20029;-63
2024/01/05 01:00:08;;;;;;;46.13;24.17;;;;;;;-146.58;100.00;69501.63;5029090;28;20436;-63
2024/01/05 01:02:33;;;;;;;;;;;;;;;-146.58;100.00;69501.63;5030300;28;20417;-63
2024/01/05 01:04:59;;;;;;;54.85;23.63;;;;;;;-146.58;100.00;69501.63;5029057;28;19920;-63
2024/01/05 01:07:24;;;;;;;48.85;27.27;;;;;;;-146.58;100.00;69501.63;5030663;28;20029;-63
2024/01/05 01:09:50;;;;;;;57.95;26.50;;;;;;;-146.58;100.00;69501.63;5028698;28;20119;-63
2024/01/05 01:12:15;;;;;;;42.65;21.33;;;;;;;-146.58;100.00;69501.63;5030594;28;20477;-63
2024/01/05 01:14:40;;;;;;;52.55;27.05;;;;;;;-146.58;100.00;69501.63;5032209;28;20057;-62
2024/01/05 01:17:06;;;;;;;47.38;27.02;;;;;;;-146.58;100.00;69501.63;5033602;28;20021;-62
2024/01/05 01:19:31;;;;;;;52.42;26.90;;;;;;;-146.58;100.00;69501.63;5032256;28;20493;-62
2024/01/05 01:21:56;;;;;;;46.75;26.27;;;;;;;-146.58;100.00;69501.63;5033705;28;20026;-62
2024/01/05 01:24:22;;;;;;;50.50;26.63;;;;;;;-146.58;100.00;69501.63;5031879;28;20037;-62
2024/01/05 01:26:47;;;;;;;61.08;26.33;;;;;;;-146.58;100.00;69501.63;5033591;28;20491;-62
2024/01/05 01:29:12;;;;;;;54.63;25.27;;;;;;;-146.58;100.00;69501.63;5032371;28;20080;-62
2024/01/05 01:31:38;;;;;;;47.65;26.30;;;;;;;-146.58;100.00;69501.63;5033113;28;20071;-62
2024/01/05 01:34:04;;;;;;;40.20;25.33;;;;;;;-146.58;100.00;69501.63;5032245;28;20400;-62
2024/01/05 01:36:29;;;;;;;54.13;26.35;;;;;;;-146.58;100.00;69501.63;5033332;28;20037;-62
2024/01/05 01:38:55;;;;;;;55.72;24.13;;;;;;;-146.58;100.00;69501.63;5031909;28;20045;-62
2024/01/05 01:41:20;;;;;;;53.58;25.92;;;;;;;-146.58;100.00;69501.63;5033497;28;20013;-62
2024/01/05 01:43:49;;;;;;;54.45;29.45;;;;;;;-146.58;100.00;69501.63;5031592;28;20021;-62
2024/01/05 01:46:14;;;;;;;;;;;;;;;-146.58;100.00;69501.63;5033755;28;20044;-62
2024/01/05 01:48:42;;;;;;;54.40;27.40;;;;;;;-146.58;100.00;69501.63;5031731;28;19909;-62
2024/01/05 01:51:07;;;;;;;42.42;26.98;;;;;;;-146.58;100.00;69501.63;5033197;28;20025;-62
2024/01/05 01:53:32;;;;;;;50.25;27.83;;;;;;;-146.58;100.00;69501.63;5031078;28;20033;-61
2024/01/05 01:55:59;;;;;;;46.05;27.55;;;;;;;-146.58;100.00;69501.63;5033140;28;20045;-62
2024/01/05 01:58:24;;;;;;;52.15;25.33;;;;;;;-146.58;100.00;69501.63;5033208;28;20032;-62
2024/01/05 02:00:51;;;;;;;67.85;25.67;;;;;;;-146.58;100.00;69501.63;5031220;28;20049;-62
2024/01/05 02:03:17;;;;;;;41.80;23.98;;;;;;;-146.58;100.00;69501.63;5033029;28;20031;-62
2024/01/05 02:05:43;;;;;;;39.97;22.67;;;;;;;-146.58;100.00;69501.63;5031301;28;20049;-62
2024/01/05 02:08:09;;;;;;;48.13;24.95;;;;;;;-146.58;100.00;69501.63;5032652;28;20022;-62
2024/01/05 02:10:34;;;;;;;63.65;26.00;;;;;;;-146.58;100.00;69501.63;5031382;28;20040;-62
2024/01/05 02:13:00;;;;;;;26.98;19.55;;;;;;;-146.58;100.00;69501.63;5032942;28;20021;-62
2024/01/05 02:15:26;;;;;;;50.28;24.88;;;;;;;-146.58;100.00;69501.63;5030751;28;20045;-62
2024/01/05 02:17:51;;;;;;;37.78;21.00;;;;;;;-146.58;100.00;69501.63;5032819;28;20026;-63
2024/01/05 02:20:17;;;;;;;55.72;25.23;;;;;;;-146.58;100.00;69501.63;5031341;28;20115;-63
2024/01/05 02:22:47;;;;;;;40.00;21.25;;;;;;;-146.58;100.00;69501.63;5032199;28;20036;-62
2024/01/05 02:25:12;;;;;;;25.75;18.98;;;;;;;-146.58;100.00;69501.63;5030419;28;20068;-62
2024/01/05 02:27:39;;;;;;;31.98;20.95;;;;;;;-146.58;100.00;69501.63;5032548;28;20811;-62
2024/01/05 02:30:04;;;;;;;55.40;23.95;;;;;;;-146.58;100.00;69501.63;5030661;28;20638;-62
2024/01/05 02:32:30;;;;;;;38.13;18.52;;;;;;;-146.58;100.00;69501.63;5032284;28;20025;-62
2024/01/05 02:34:56;;;;;;;31.42;20.98;;;;;;;-146.58;100.00;69501.63;5030827;28;20404;-62
2024/01/05 02:37:21;;;;;;;43.95;23.63;;;;;;;-146.58;100.00;69501.63;5031935;28;20116;-62
2024/01/05 02:39:47;;;;;;;31.05;19.67;;;;;;;-146.58;100.00;69501.63;5030540;28;20045;-62
2024/01/05 02:42:12;;;;;;;36.92;19.17;;;;;;;-146.58;100.00;69501.63;5032182;28;20024;-62
2024/01/05 02:44:38;;;;;;;40.60;19.85;;;;;;;-146.58;100.00;69501.63;5030115;28;20512;-62
2024/01/05 02:47:03;;;;;;;36.08;19.60;;;;;;;-146.58;100.00;69501.63;5032631;28;20032;-62
2024/01/05 02:49:28;;;;;;;43.50;23.95;;;;;;;-146.58;100.00;69501.63;5030552;28;20038;-62
2024/01/05 02:51:54;;;;;;;45.30;22.42;;;;;;;-146.58;100.00;69501.63;5031929;28;20044;-62
2024/01/05 02:54:19;;;;;;;38.22;19.10;;;;;;;-146.58;100.00;69501.63;5030577;28;20075;-62
2024/01/05 02:56:44;;;;;;;41.67;21.83;;;;;;;-146.58;100.00;69501.63;5031909;28;20047;-62
2024/01/05 02:59:10;;;;;;;38.70;21.33;;;;;;;-146.58;100.00;69501.63;5030229;28;20037;-62
2024/01/05 03:01:35;;;;;;;38.15;20.48;;;;;;;-146.58;100.00;69501.63;5031657;28;20071;-62
2024/01/05 03:04:01;;;;;;;41.95;20.38;;;;;;;-146.58;100.00;69501.63;5030570;28;20041;-62
2024/01/05 03:06:26;;;;;;;36.95;22.38;;;;;;;-146.58;100.00;69501.63;5031618;28;20025;-62
2024/01/05 03:08:52;;;;;;;41.50;19.20;;;;;;;-146.58;100.00;69501.63;5030187;28;20037;-63
2024/01/05 03:11:17;;;;;;;55.38;21.63;;;;;;;-146.58;100.00;69501.63;5031690;28;20025;-62
2024/01/05 03:13:43;;;;;;;37.05;17.65;;;;;;;-146.58;100.00;69501.63;5030009;28;20021;-62
2024/01/05 03:16:08;;;;;;;41.03;18.95;;;;;;;-146.58;100.00;69501.63;5031306;28;20060;-62
2024/01/05 03:18:33;;;;;;;41.35;17.33;;;;;;;-146.58;100.00;69501.63;5030120;28;20063;-62
2024/01/05 03:20:59;;;;;;;35.25;19.33;;;;;;;-146.58;100.00;69501.63;5031665;28;20144;-62
2024/01/05 03:23:24;;;;;;;36.08;15.68;;;;;;;-146.58;100.00;69501.63;5031050;28;20500;-62
2024/01/05 03:25:50;;;;;;;32.90;14.77;;;;;;;-146.58;100.00;69501.63;5030124;28;20045;-63
2024/01/05 03:28:16;;;;;;;26.08;11.68;;;;;;;-146.58;100.00;69501.63;5031693;28;20021;-63
2024/01/05 03:30:42;;;;;;;43.65;14.15;;;;;;;-146.58;100.00;69501.63;5029525;28;20107;-62
2024/01/05 03:33:08;;;;;;;36.33;15.68;;;;;;;-146.58;100.00;69501.63;5031649;28;20022;-62
2024/01/05 03:35:33;;;;;;;26.75;13.65;;;;;;;-146.58;100.00;69501.63;5029048;28;20124;-62
2024/01/05 03:37:58;;;;;;;23.35;12.00;;;;;;;-146.58;100.00;69501.63;5030411;28;20028;-62
2024/01/05 03:40:24;;;;;;;31.50;11.55;;;;;;;-146.58;100.00;69501.63;5029824;28;20509;-62
2024/01/05 03:42:49;;;;;;;28.63;12.88;;;;;;;-146.58;100.00;69501.63;5031145;28;20017;-62
2024/01/05 03:45:14;;;;;;;25.52;11.38;;;;;;;-146.58;100.00;69501.63;5029415;28;20041;-62
2024/01/05 03:47:40;;;;;;;27.60;12.25;;;;;;;-146.58;100.00;69501.63;5031072;28;20017;-62
2024/01/05 03:50:06;;;;;;;42.15;12.15;;;;;;;-146.58;100.00;69501.63;5029611;28;20033;-62
2024/01/05 03:52:31;;;;;;;26.98;11.10;;;;;;;-146.58;100.00;69501.63;5030669;28;20042;-62
2024/01/05 03:54:57;;;;;;;22.13;12.10;;;;;;;-146.58;100.00;69501.63;5029543;28;20547;-62
2024/01/05 03:57:23;;;;;;;18.45;8.95;;;;;;;-146.58;100.00;69501.63;5031328;28;20087;-62
2024/01/05 03:59:49;;;;;;;18.05;8.77;;;;;;;-146.58;100.00;69501.63;5029096;28;20532;-62
2024/01/05 04:02:14;;;;;;;19.70;9.63;;;;;;;-146.58;100.00;69501.63;5030883;28;20049;-62
2024/01/05 04:04:40;;;;;;;40.83;12.00;;;;;;;-146.58;100.00;69501.63;5029312;28;20044;-62
2024/01/05 04:07:05;;;;;;;20.10;9.27;;;;;;;-146.58;100.00;69501.63;5030501;28;20389;-62
2024/01/05 04:09:31;;;;;;;21.80;10.23;;;;;;;-146.58;100.00;69501.63;5029259;28;20050;-62
2024/01/05 04:11:57;;;;;;;26.70;10.50;;;;;;;-146.58;100.00;69501.63;5031145;28;20017;-62
2024/01/05 04:14:22;;;;;;;15.98;7.55;;;;;;;-146.58;100.00;69501.63;5029253;28;20424;-63
2024/01/05 04:16:48;;;;;;;16.52;7.35;;;;;;;-146.58;100.00;69501.63;5030686;28;20473;-64
2024/01/05 04:19:13;;;;;;;16.20;7.50;;;;;;;-146.58;100.00;69501.63;5029593;28;20589;-63
2024/01/05 04:21:39;;;;;;;24.58;7.93;;;;;;;-146.58;100.00;69501.63;5030286;28;20029;-63
2024/01/05 04:24:04;;;;;;;33.33;12.73;;;;;;;-146.58;100.00;69501.63;5028882;28;20080;-64
2024/01/05 04:26:29;;;;;;;32.53;10.02;;;;;;;-146.58;100.00;69501.63;5030572;28;20026;-63
2024/01/05 04:28:55;;;;;;;22.55;9.40;;;;;;;-146.58;100.00;69501.63;5029232;28;20044;-63
2024/01/05 04:31:20;;;;;;;23.85;8.50;;;;;;;-146.58;100.00;69501.63;5030512;28;20079;-63
2024/01/05 04:33:46;;;;;;;16.85;8.30;;;;;;;-146.58;100.00;69501.63;5029158;28;20033;-63
2024/01/05 04:36:15;;;;;;;28.27;7.50;;;;;;;-146.58;100.00;69501.63;5030222;28;20456;-63
2024/01/05 04:38:40;;;;;;;22.75;7.95;;;;;;;-146.58;100.00;69501.63;5028669;28;20030;-63
2024/01/05 04:41:06;;;;;;;22.83;6.88;;;;;;;-146.58;100.00;69501.63;5030672;28;20420;-63
2024/01/05 04:43:31;;;;;;;20.60;6.55;;;;;;;-146.58;100.00;69501.63;5029873;28;20473;-63
2024/01/05 04:45:56;;;;;;;35.30;7.35;;;;;;;-146.58;100.00;69501.63;5029352;28;20107;-63
2024/01/05 04:48:22;;;;;;;17.10;6.15;;;;;;;-146.58;100.00;69501.63;5032702;28;20028;-64
2024/01/05 04:50:47;;;;;;;18.38;6.22;;;;;;;-146.58;100.00;69501.63;5032471;28;20037;-64
2024/01/05 04:53:12;;;;;;;12.27;5.45;;;;;;;-146.58;100.00;69501.63;5034020;28;20072;-64
2024/01/05 04:55:38;;;;;;;31.13;9.77;;;;;;;-146.58;100.00;69501.63;5032671;28;20038;-64
2024/01/05 04:58:03;;;;;;;14.38;5.25;;;;;;;-146.58;100.00;69501.63;5033976;28;20029;-63
2024/01/05 05:00:29;;;;;;;17.73;7.70;;;;;;;-146.58;100.00;69501.63;5031951;28;20543;-63
2024/01/05 05:02:54;;;;;;;21.88;6.88;;;;;;;-146.58;100.00;69501.63;5034209;28;20029;-63
2024/01/05 05:05:19;;;;;;;18.02;7.40;;;;;;;-146.58;100.00;69501.63;5032473;28;20042;-63
2024/01/05 05:07:45;;;;;;;21.80;6.45;;;;;;;-146.58;100.00;69501.63;5034227;28;20041;-63
2024/01/05 05:10:10;;;;;;;13.93;5.28;;;;;;;-146.58;100.00;69501.63;5032610;28;20517;-63
2024/01/05 05:12:35;;;;;;;17.33;5.82;;;;;;;-146.58;100.00;69501.63;5032646;28;20018;-59
2024/01/05 05:15:01;;;;;;;14.70;6.00;;;;;;;-146.58;100.00;69501.63;5031862;28;20046;-62
2024/01/05 05:17:26;;;;;;;10.52;5.13;;;;;;;-146.58;100.00;69501.63;5022147;28;20018;-62
2024/01/05 05:19:54;;;;;;;32.00;9.07;;;;;;;-146.58;100.00;69501.63;5030557;28;20431;-62
2024/01/05 05:22:20;;;;;;;25.33;8.70;;;;;;;-146.58;100.00;69501.63;5033676;28;20407;-62
2024/01/05 05:24:46;;;;;;;18.55;6.85;;;;;;;-146.58;100.00;69501.63;5031921;28;20045;-62
2024/01/05 05:27:11;;;;;;;14.82;4.57;;;;;;;-146.58;100.00;69501.63;5033463;28;20067;-62
2024/01/05 05:29:37;;;;;;;13.38;6.55;;;;;;;-146.58;100.00;69501.63;5031602;28;20618;-62
2024/01/05 05:32:02;;;;;;;15.50;5.60;;;;;;;-146.58;100.00;69501.63;5033560;28;20025;-62
2024/01/05 05:34:28;;;;;;;11.00;5.53;;;;;;;-146.58;100.00;69501.63;5031765;28;20080;-62
2024/01/05 05:36:53;;;;;;;15.43;6.18;;;;;;;-146.58;100.00;69501.63;5032313;28;20056;-63
2024/01/05 05:39:18;;;;;;;22.90;6.50;;;;;;;-146.58;100.00;69501.63;5031587;28;20049;-62
2024/01/05 05:41:44;;;;;;;15.82;4.72;;;;;;;-146.58;100.00;69501.63;5031436;28;20429;-62
2024/01/05 05:44:09;;;;;;;16.48;5.10;;;;;;;-146.58;100.00;69501.63;5031647;28;20037;-62
2024/01/05 05:46:35;;;;;;;18.23;4.55;;;;;;;-146.58;100.00;69501.63;5033235;28;20022;-63
2024/01/05 05:49:00;;;;;;;18.60;7.15;;;;;;;-146.58;100.00;69501.63;5032071;28;20037;-62
2024/01/05 05:51:26;;;;;;;14.25;5.05;;;;;;;-146.58;100.00;69501.63;5033016;28;20033;-62
2024/01/05 05:53:51;;;;;;;19.15;5.45;;;;;;;-146.58;100.00;69501.63;5032041;28;20046;-62
2024/01/05 05:56:17;;;;;;;12.57;4.75;;;;;;;-146.58;100.00;69501.63;5033189;28;20029;-62
2024/01/05 05:58:42;;;;;;;18.33;5.07;;;;;;;-146.58;100.00;69501.63;5030901;28;20132;-62
2024/01/05 06:01:09;;;;;;;14.32;4.35;;;;;;;-146.58;100.00;69501.63;5032662;28;20025;-62
2024/01/05 06:03:35;;;;;;;14.25;4.75;;;;;;;-146.58;100.00;69501.63;5031395;28;20014;-62
2024/01/05 06:06:00;;;;;;;37.72;10.50;;;;;;;-146.58;100.00;69501.63;5033006;28;20468;-63
2024/01/05 06:08:25;;;;;;;17.40;6.35;;;;;;;-146.58;100.00;69501.63;5032823;28;20021;-62
2024/01/05 06:10:51;;;;;;;17.80;5.03;;;;;;;-146.58;100.00;69501.63;5031572;28;20049;-63
2024/01/05 06:13:16;;;;;;;22.85;7.28;;;;;;;-146.58;100.00;69501.63;5032528;28;20021;-62
2024/01/05 06:15:42;;;;;;;13.70;4.20;;;;;;;-146.58;100.00;69501.63;5031249;28;20041;-62
2024/01/05 06:18:08;;;;;;;14.82;6.07;;;;;;;-146.58;100.00;69501.63;5032758;28;20477;-62
2024/01/05 06:20:33;;;;;;;15.57;5.32;;;;;;;-146.58;100.00;69501.63;5030683;28;20115;-62
2024/01/05 06:22:58;;;;;;;16.10;4.45;;;;;;;-146.58;100.00;69501.63;5032835;28;20029;-62
2024/01/05 06:25:24;;;;;;;13.10;4.10;;;;;;;-146.58;100.00;69501.63;5030948;28;20101;-61
2024/01/05 06:27:49;;;;;;;11.80;4.68;;;;;;;-146.58;100.00;69501.63;5032293;28;20025;-62
2024/01/05 06:30:14;;;;;;;15.68;4.80;;;;;;;-146.58;100.00;69501.63;5031170;28;20103;-62
2024/01/05 06:32:40;;;;;;;21.83;6.10;;;;;;;-146.58;100.00;69501.63;5032559;28;20049;-61
2024/01/05 06:35:06;;;;;;;8.77;5.22;;;;;;;-146.58;100.00;69501.63;5030511;28;20045;-62
2024/01/05 06:37:32;;;;;;;10.35;5.28;;;;;;;-146.58;100.00;69501.63;5032300;28;20059;-62
2024/01/05 06:39:57;;;;;;;34.83;7.20;;;;;;;-146.58;100.00;69501.63;5031048;28;20041;-62
2024/01/05 06:42:23;;;;;;;14.88;5.38;;;;;;;-146.58;100.00;69501.63;5032003;28;20110;-62
2024/01/05 06:44:50;;;;;;;19.20;6.97;;;;;;;-146.58;100.00;69501.63;5030576;28;20042;-62
2024/01/05 06:47:16;;;;;;;7.82;5.65;;;;;;;-146.58;100.00;69501.63;5032259;28;20533;-62
2024/01/05 06:49:41;;;;;;;19.98;6.88;;;;;;;-146.58;100.00;69501.63;5030362;28;20128;-62
2024/01/05 06:52:07;;;;;;;10.30;3.70;;;;;;;-146.58;100.00;69501.63;5032201;28;20013;-62
2024/01/05 06:54:34;;;;;;;21.30;7.32;;;;;;;-146.58;100.00;69501.63;5030217;28;20053;-62
2024/01/05 06:56:59;;;;;;;8.32;4.28;;;;;;;-146.58;100.00;69501.63;5031988;28;20024;-62
2024/01/05 06:59:26;;;;;;;11.82;4.00;;;;;;;-146.58;100.00;69501.63;5030589;28;20033;-62
2024/01/05 07:01:51;;;;;;;25.17;4.00;;;;;;;-146.58;100.00;69501.63;5032167;28;20056;-61
2024/01/05 07:04:16;;;;;;;12.50;4.78;;;;;;;-146.58;100.00;69501.63;5030269;28;20040;-61
2024/01/05 07:06:42;;;;;;;24.02;5.05;;;;;;;-146.58;100.00;69501.63;5031714;28;20488;-61
2024/01/05 07:09:07;;;;;;;11.43;4.20;;;;;;;-146.58;100.00;69501.63;5030539;28;20037;-61
2024/01/05 07:11:33;;;;;;;16.95;6.28;;;;;;;-146.58;100.00;69501.63;5031262;28;20072;-61
2024/01/05 07:13:58;;;;;;;10.00;5.07;;;;;;;-146.58;100.00;69501.63;5030618;28;20041;-62
2024/01/05 07:16:24;;;;;;;5.47;2.90;;;;;;;-146.58;100.00;69501.63;5031797;28;20025;-61
2024/01/05 07:18:49;;;;;;;10.68;4.38;;;;;;;-146.58;100.00;69501.63;5029927;28;20095;-62
2024/01/05 07:21:16;;;;;;;15.32;5.22;;;;;;;-146.58;100.00;69501.63;5031648;28;20580;-62
2024/01/05 07:23:42;;;;;;;9.32;3.55;;;;;;;-146.58;100.00;69501.63;5029837;28;20026;-62
2024/01/05 07:26:09;;;;;;;14.50;4.72;;;;;;;-146.58;100.00;69501.63;5030989;28;20060;-62
2024/01/05 07:28:34;;;;;;;8.50;4.32;;;;;;;-146.58;100.00;69501.63;5029291;28;20505;-62
2024/01/05 07:31:04;;;;;;;14.68;4.75;;;;;;;-146.58;100.00;69501.63;5030922;28;20018;-63
2024/01/05 07:33:29;;;;;;;11.80;6.45;;;;;;;-146.58;100.00;69501.63;5030833;28;20032;-59
2024/01/05 07:35:55;;;;;;;9.50;3.60;;;;;;;-146.58;100.00;69501.63;5030069;28;20041;-59
2024/01/05 07:38:20;;;;;;;9.63;5.13;;;;;;;-146.58;100.00;69501.63;5031273;28;20477;-59
2024/01/05 07:40:46;;;;;;;7.03;3.90;;;;;;;-146.58;100.00;69501.63;5029424;28;20083;-59
2024/01/05 07:43:12;;;;;;;11.50;4.07;;;;;;;-146.58;100.00;69501.63;5031146;28;20480;-59
2024/01/05 07:45:38;;;;;;;8.75;4.05;;;;;;;-146.58;100.00;69501.63;5029454;28;20505;-59
2024/01/05 07:48:03;;;;;;;8.43;4.15;;;;;;;-146.58;100.00;69501.63;5030728;28;20036;-59
2024/01/05 07:50:31;;;;;;;11.73;4.45;;;;;;;-146.58;100.00;69501.63;5029285;28;20052;-59
2024/01/05 07:52:56;;;;;;;7.65;3.50;;;;;;;-146.58;100.00;69501.63;5031356;28;20444;-59
2024/01/05 07:55:22;;;;;;;13.38;5.97;;;;;;;-146.58;100.00;69501.63;5029202;28;20041;-59
2024/01/05 07:57:47;;;;;;;7.30;3.45;;;;;;;-146.58;100.00;69501.63;5030743;28;20025;-59
2024/01/05 08:00:13;;;;;;;6.68;4.10;;;;;;;-146.58;100.00;69501.63;5029725;28;20041;-59
2024/01/05 08:02:38;;;;;;;17.23;3.90;;;;;;;-146.58;100.00;69501.63;5030553;28;20429;-59
2024/01/05 08:05:04;;;;;;;7.22;3.30;;;;;;;-146.58;100.00;69501.63;5029286;28;20041;-59
2024/01/05 08:07:30;;;;;;;7.55;4.32;;;;;;;-146.58;100.00;69501.63;5031002;28;20029;-59
2024/01/05 08:09:55;;;;;;;9.77;4.65;;;;;;;-146.58;100.00;69501.63;5029678;28;20075;-59
2024/01/05 08:12:20;;;;;;;25.60;5.88;;;;;;;-146.58;100.00;69501.63;5028592;28;20424;-59
2024/01/05 08:14:46;;;;;;;16.23;5.65;;;;;;;-146.58;100.00;69501.63;5028656;28;20046;-59
2024/01/05 08:17:11;;;;;;;6.53;3.53;;;;;;;-146.58;100.00;69501.63;5030705;28;20033;-59
2024/01/05 08:19:37;;;;;;;6.25;2.92;;;;;;;-146.58;100.00;69501.63;5028755;28;20042;-60
2024/01/05 08:22:02;;;;;;;7.88;3.08;;;;;;;-146.58;100.00;69501.63;5030499;28;20025;-59
2024/01/05 08:24:28;;;;;;;8.75;2.95;;;;;;;-146.58;100.00;69501.63;5032887;28;20448;-59
2024/01/05 08:26:54;;;;;;;13.13;3.97;;;;;;;-146.58;100.00;69501.63;5034139;28;20029;-59
2024/01/05 08:29:21;;;;;;;13.23;5.20;;;;;;;-146.58;100.00;69501.63;5033398;28;20048;-60
2024/01/05 08:31:49;;;;;;;13.63;5.15;;;;;;;-146.58;100.00;69501.63;5034586;28;20025;-59
2024/01/05 08:34:16;;;;;;;4.97;3.17;;;;;;;-146.58;100.00;69501.63;5033011;28;20033;-59
2024/01/05 08:36:42;;;;;;;11.30;3.42;;;;;;;-146.58;100.00;69501.63;5034235;28;20071;-59
2024/01/05 08:39:07;;;;;;;6.80;4.20;;;;;;;-146.58;100.00;69501.63;5033571;28;20488;-59
2024/01/05 08:41:33;;;;;;;8.82;3.25;;;;;;;-146.58;100.00;69501.63;5034150;28;20052;-59
2024/01/05 08:43:58;;;;;;;5.32;2.60;;;;;;;-146.58;100.00;69501.63;5032942;28;20056;-59
2024/01/05 08:46:27;;;;;;;8.70;3.78;;;;;;;-146.58;100.00;69501.63;5034428;28;20075;-59
2024/01/05 08:48:52;;;;;;;14.27;4.38;;;;;;;-146.58;100.00;69501.63;5032773;28;20120;-59
2024/01/05 08:51:18;;;;;;;15.13;4.35;;;;;;;-146.58;100.00;69501.63;5034420;28;20025;-59
2024/01/05 08:53:43;;;;;;;4.38;3.13;;;;;;;-146.58;100.00;69501.63;5032614;28;20048;-59
2024/01/05 08:56:10;;;;;;;14.02;3.30;;;;;;;-146.58;100.00;69501.63;5033794;28;20018;-59
2024/01/05 08:58:35;;;;;;;4.85;2.10;;;;;;;-146.58;100.00;69501.63;5032945;28;20028;-59
2024/01/05 09:01:00;;;;;;;6.72;2.40;;;;;;;-146.58;100.00;69501.63;5034212;28;20025;-59
2024/01/05 09:03:26;;;;;;;7.45;3.08;;;;;;;-146.58;100.00;69501.63;5033595;28;20579;-60
2024/01/05 09:05:52;;;;;;;3.00;2.00;;;;;;;-146.58;100.00;69501.63;5032552;28;20061;-59
2024/01/05 09:08:18;;;;;;;1.60;1.50;;;;;;;-146.58;100.00;69501.63;5033843;28;20048;-59
2024/01/05 09:10:43;;;;;;;26.48;3.13;;;;;;;-146.58;100.00;69501.63;5031893;28;20069;-59
2024/01/05 09:13:09;;;;;;;1.80;1.60;;;;;;;-146.58;100.00;69501.63;5034271;28;20480;-60
2024/01/05 09:15:34;;;;;;;1.92;1.60;;;;;;;-146.58;100.00;69501.63;5032100;28;20068;-59
2024/01/05 09:17:59;;;;;;;1.48;1.48;;;;;;;-146.58;100.00;69501.63;5033692;28;20032;-59
2024/01/05 09:20:25;;;;;;;4.38;3.00;;;;;;;-146.58;100.00;69501.63;5032345;28;20037;-59
2024/01/05 09:22:50;;;;;;;4.22;1.88;;;;;;;-146.58;100.00;69501.63;5033586;28;20025;-59
2024/01/05 09:25:16;;;;;;;2.80;1.83;;;;;;;-146.58;100.00;69501.63;5031778;28;20034;-59
2024/01/05 09:27:42;;;;;;;1.45;1.45;;;;;;;-146.58;100.00;69501.63;5033279;28;20022;-59
2024/01/05 09:30:07;;;;;;;1.90;1.73;;;;;;;-146.58;100.00;69501.63;5032114;28;20037;-59
2024/01/05 09:32:33;;;;;;;1.30;1.30;;;;;;;-146.58;100.00;69501.63;5033092;28;20026;-59
2024/01/05 09:34:58;;;;;;;2.40;2.22;;;;;;;-146.58;100.00;69501.63;5029687;28;20053;-59
2024/01/05 09:37:24;;;;;;;1.98;1.83;;;;;;;-146.58;100.00;69501.63;5015704;28;20030;-59
2024/01/05 09:39:49;;;;;;;4.43;1.80;;;;;;;-146.58;100.00;69501.63;5011877;28;20072;-59
2024/01/05 09:42:15;;;;;;;1.60;1.50;;;;;;;-146.58;100.00;69501.63;5030728;28;20497;-59
2024/01/05 09:44:42;;;;;;;2.88;2.03;;;;;;;-146.58;100.00;69501.63;5031630;28;20087;-59
2024/01/05 09:47:08;;;;;;;3.85;2.22;;;;;;;-146.58;100.00;69501.63;5032786;28;20029;-59
2024/01/05 09:49:39;;;;;;;1.60;1.50;;;;;;;-146.58;100.00;69501.63;5029684;28;20075;-59
2024/01/05 09:52:04;;;;;;;1.55;1.48;;;;;;;-146.58;100.00;69501.63;5033249;28;20021;-59
2024/01/05 09:54:30;;;;;;;2.25;2.15;;;;;;;-146.58;100.00;69501.63;5031156;28;20516;-59
2024/01/05 09:56:56;;;;;;;1.55;1.45;;;;;;;-146.58;100.00;69501.63;5033212;28;20025;-59
2024/01/05 09:59:23;;;;;;;1.33;1.23;;;;;;;-146.58;100.00;69501.63;5029778;28;20094;-59
2024/01/05 10:01:50;;;;;;;2.70;2.50;;;;;;;-146.58;100.00;69501.63;5030301;28;20029;-59
2024/01/05 10:04:15;;;;;;;1.60;1.60;;;;;;;-146.58;100.00;69501.63;5029205;28;20096;-59
2024/01/05 10:06:41;;;;;;;2.35;1.60;;;;;;;-146.58;100.00;69501.63;5030850;28;20026;-59
2024/01/05 10:09:06;;;;;;;1.50;1.50;;;;;;;-146.58;100.00;69501.63;5029315;28;20092;-58
2024/01/05 10:11:35;;;;;;;1.67;1.58;;;;;;;-146.58;100.00;69501.63;5030832;28;20119;-58
2024/01/05 10:14:03;;;;;;;2.00;1.90;;;;;;;-146.58;100.00;69501.63;5030631;28;20049;-58
2024/01/05 10:16:39;;;;;;;4.55;1.70;;;;;;;-146.58;100.00;69501.63;5032392;28;20028;-59
2024/01/05 10:19:14;;;;;;;2.20;1.75;;;;;;;-146.58;100.00;69501.63;5031598;28;20077;-59
2024/01/05 10:21:41;;;;;;;1.98;1.88;;;;;;;-146.58;100.00;69501.63;5032590;28;20057;-59
2024/01/05 10:24:22;;;;;;;1.65;1.55;;;;;;;-146.58;100.00;69501.63;5031002;28;20037;-58
2024/01/05 10:27:00;;;;;;;2.40;2.20;;;;;;;-146.58;100.00;69501.63;5032725;28;20024;-58
2024/01/05 10:29:25;;;;;;;1.63;1.52;;;;;;;-146.58;100.00;69501.63;5031107;28;20033;-58
2024/01/05 10:31:50;;;;;;;1.70;1.60;;;;;;;-146.58;100.00;69501.63;5032277;28;20025;-58
2024/01/05 10:34:16;;;;;;;2.70;1.63;;;;;;;-146.58;100.00;69501.63;5030154;28;20501;-58
2024/01/05 10:36:41;;;;;;;1.70;1.60;;;;;;;-146.58;100.00;69501.63;5032088;28;20106;-59
2024/01/05 10:39:08;;;;;;;2.25;2.03;;;;;;;-146.58;100.00;69501.63;5030561;28;20048;-59
2024/01/05 10:41:34;;;;;;;1.50;1.40;;;;;;;-146.58;100.00;69501.63;5032042;28;20505;-58
2024/01/05 10:44:03;;;;;;;1.80;1.70;;;;;;;-146.58;100.00;69501.63;5030810;28;20037;-58
2024/01/05 10:46:31;;;;;;;4.93;1.77;;;;;;;-146.58;100.00;69501.63;5029432;28;20079;-58
2024/01/05 10:48:56;;;;;;;1.77;1.65;;;;;;;-146.58;100.00;69501.63;5030292;28;20057;-59
2024/01/05 10:51:25;;;;;;;3.38;1.70;;;;;;;-146.58;100.00;69501.63;5031742;28;20057;-58
2024/01/05 10:53:50;;;;;;;;;;;;;;;-146.58;100.00;69501.63;5031055;28;20053;-58
2024/01/05 10:56:19;;;;;;;1.77;1.67;;;;;;;-146.58;100.00;69501.63;5032127;28;19940;-58